ASL100 LIRN-LYBE
Flight info
| Callsign | ASL100 |
|---|---|
| Flight time | N/A |
| Altitude | 330 |
| Route | BEDP7H BEDPI M725 MOLUX RILIM VELIT SOMUN L5 ENUPU ENUP2S |
| Aircraft | B738/M-SDE3FGHIRWY/LB1 |
Departure
| Time | N/A |
|---|---|
| Airport | Naples International Airport (LIRN) |
Arrival
| Time | 2026-04-30 18:06 |
|---|---|
| Airport | Belgrade Nikola Tesla Airport (LYBE) |
| Time | Latitude | Longitude | Altitude | Speed | Heading |
|---|---|---|---|---|---|
| 2026-04-30 17:39 | 44.04831 | 18.29394 | 33306 ft | 468 kts | 43° |
| 2026-04-30 17:42 | 44.27026 | 18.62179 | 33351 ft | 463 kts | 43° |
| 2026-04-30 17:43 | 44.38028 | 18.78541 | 33349 ft | 461 kts | 43° |
| 2026-04-30 17:44 | 44.51061 | 18.97917 | 33097 ft | 433 kts | 43° |
| 2026-04-30 17:46 | 44.60402 | 19.14597 | 29485 ft | 455 kts | 78° |
| 2026-04-30 17:47 | 44.61466 | 19.31871 | 27039 ft | 436 kts | 68° |
| 2026-04-30 17:48 | 44.66223 | 19.47215 | 24356 ft | 423 kts | 43° |
| 2026-04-30 17:48 | 44.72609 | 19.55371 | 22507 ft | 412 kts | 47° |
| 2026-04-30 17:49 | 44.79343 | 19.68178 | 19953 ft | 401 kts | 50° |
| 2026-04-30 17:50 | 44.85618 | 19.79294 | 17643 ft | 391 kts | 50° |
| 2026-04-30 17:51 | 44.87913 | 19.89453 | 15623 ft | 402 kts | 103° |
| 2026-04-30 17:52 | 44.83726 | 19.99551 | 13890 ft | 397 kts | 124° |
| 2026-04-30 17:53 | 44.76591 | 20.15733 | 10648 ft | 382 kts | 118° |
| 2026-04-30 17:54 | 44.71140 | 20.28231 | 8483 ft | 358 kts | 120° |
| 2026-04-30 17:55 | 44.66316 | 20.39008 | 8376 ft | 295 kts | 120° |
| 2026-04-30 17:56 | 44.61952 | 20.48793 | 6775 ft | 298 kts | 120° |
| 2026-04-30 17:57 | 44.58785 | 20.56231 | 5448 ft | 296 kts | 102° |
| 2026-04-30 17:58 | 44.61469 | 20.61719 | 4870 ft | 233 kts | 355° |
| 2026-04-30 17:59 | 44.66556 | 20.58316 | 4571 ft | 198 kts | 7° |
| 2026-04-30 18:00 | 44.70102 | 20.54969 | 3789 ft | 171 kts | 303° |
| 2026-04-30 18:00 | 44.72249 | 20.51785 | 3422 ft | 144 kts | 310° |
| 2026-04-30 18:01 | 44.73311 | 20.49351 | 3363 ft | 148 kts | 305° |
| 2026-04-30 18:02 | 44.74948 | 20.45705 | 2689 ft | 148 kts | 307° |
| 2026-04-30 18:02 | 44.76515 | 20.42179 | 1928 ft | 140 kts | 308° |
| 2026-04-30 18:03 | 44.78154 | 20.38698 | 1456 ft | 141 kts | 304° |
| 2026-04-30 18:04 | 44.79663 | 20.35357 | 911 ft | 144 kts | 304° |
| 2026-04-30 18:05 | 44.81561 | 20.31089 | 304 ft | 76 kts | 303° |
| 2026-04-30 18:06 | 44.82001 | 20.30109 | 305 ft | 32 kts | 302° |
| 2026-04-30 18:07 | 44.82044 | 20.29481 | 307 ft | 12 kts | 213° |
| 2026-04-30 18:08 | 44.82052 | 20.29382 | 308 ft | 0 kts | 301° |